createdAt,value
2022-08-25T00:00:15.168Z,4.57
2022-08-25T00:02:54.122Z,4.70
2022-08-25T00:05:27.732Z,4.63
2022-08-25T00:07:57.468Z,4.80
2022-08-25T00:10:25.998Z,5.10
2022-08-25T00:12:53.946Z,5.23
2022-08-25T00:15:23.569Z,7.57
2022-08-25T00:17:51.832Z,5.07
2022-08-25T00:20:20.227Z,6.17
2022-08-25T00:22:48.848Z,8.00
2022-08-25T00:25:18.183Z,6.63
2022-08-25T00:27:47.281Z,4.93
2022-08-25T00:30:16.624Z,8.80
2022-08-25T00:32:51.444Z,5.30
2022-08-25T00:35:24.379Z,5.03
2022-08-25T00:37:52.299Z,4.73
2022-08-25T00:40:20.688Z,4.17
2022-08-25T00:42:48.607Z,4.50
2022-08-25T00:45:16.839Z,4.20
2022-08-25T00:47:46.110Z,6.53
2022-08-25T00:50:14.084Z,7.20
2022-08-25T00:52:46.193Z,4.97
2022-08-25T00:55:18.945Z,6.13
2022-08-25T00:57:50.951Z,4.60
2022-08-25T01:00:22.371Z,5.27
2022-08-25T01:02:51.687Z,5.70
2022-08-25T01:05:20.691Z,6.23
2022-08-25T01:07:50.266Z,4.67
2022-08-25T01:10:22.324Z,4.87
2022-08-25T01:12:51.237Z,5.60
2022-08-25T01:15:19.543Z,6.40
2022-08-25T01:17:53.607Z,6.60
2022-08-25T01:20:29.556Z,5.47
2022-08-25T01:22:59.780Z,5.47
2022-08-25T01:25:37.707Z,5.70
2022-08-25T01:28:06.819Z,4.73
2022-08-25T01:30:35.807Z,5.07
2022-08-25T01:33:05.608Z,5.87
2022-08-25T01:35:33.879Z,6.20
2022-08-25T01:38:05.453Z,5.80
2022-08-25T01:40:33.894Z,6.07
2022-08-25T01:43:18.104Z,5.83
2022-08-25T01:45:48.387Z,6.57
2022-08-25T01:48:17.708Z,5.50
2022-08-25T01:50:45.674Z,7.37
2022-08-25T01:53:20.057Z,8.53
2022-08-25T01:55:55.743Z,6.47
2022-08-25T01:58:26.409Z,5.60
2022-08-25T02:00:57.035Z,5.77
2022-08-25T02:03:26.273Z,5.37
2022-08-25T02:05:54.779Z,6.43
2022-08-25T02:08:24.355Z,5.97
2022-08-25T02:10:53.115Z,5.77
2022-08-25T02:13:26.982Z,6.37
2022-08-25T02:16:01.694Z,6.30
2022-08-25T02:18:30.382Z,7.60
2022-08-25T02:20:58.340Z,7.33
2022-08-25T02:23:28.180Z,7.13
2022-08-25T02:25:57.170Z,7.20
2022-08-25T02:28:25.552Z,8.87
2022-08-25T02:31:00.143Z,7.67
2022-08-25T02:33:30.082Z,7.00
2022-08-25T02:35:59.598Z,6.73
2022-08-25T02:38:29.329Z,6.53
2022-08-25T02:40:57.351Z,7.03
2022-08-25T02:43:25.856Z,10.27
2022-08-25T02:45:54.250Z,7.20
2022-08-25T02:48:23.313Z,7.50
2022-08-25T02:50:53.527Z,8.90
2022-08-25T02:53:22.183Z,8.27
2022-08-25T02:55:52.205Z,7.33
2022-08-25T02:58:20.207Z,7.07
2022-08-25T03:00:49.445Z,6.80
2022-08-25T03:03:17.517Z,7.50
2022-08-25T03:05:45.467Z,7.23
2022-08-25T03:08:13.827Z,8.73
2022-08-25T03:10:42.010Z,7.43
2022-08-25T03:13:11.230Z,7.93
2022-08-25T03:15:39.273Z,7.97
2022-08-25T03:18:08.627Z,8.20
2022-08-25T03:20:36.922Z,7.53
2022-08-25T03:23:06.547Z,7.00
2022-08-25T03:25:52.690Z,7.27
2022-08-25T03:28:24.944Z,7.33
2022-08-25T03:31:00.246Z,8.23
2022-08-25T03:33:28.241Z,7.33
2022-08-25T03:35:56.253Z,9.60
2022-08-25T03:38:25.324Z,10.83
2022-08-25T03:40:54.389Z,9.17
2022-08-25T03:43:23.977Z,7.70
2022-08-25T03:45:52.187Z,8.83
2022-08-25T03:48:20.086Z,6.47
2022-08-25T03:50:51.775Z,8.47
2022-08-25T03:53:20.785Z,7.10
2022-08-25T03:55:49.015Z,6.63
2022-08-25T03:58:18.023Z,7.87
2022-08-25T04:00:47.286Z,7.63
2022-08-25T04:03:15.220Z,9.67
2022-08-25T04:05:44.115Z,9.57
2022-08-25T04:08:12.835Z,8.03
2022-08-25T04:10:40.716Z,7.60
2022-08-25T04:13:08.631Z,6.77
2022-08-25T04:15:37.019Z,7.53
2022-08-25T04:18:06.720Z,9.70
2022-08-25T04:20:34.726Z,8.53
2022-08-25T04:23:02.815Z,7.37
2022-08-25T04:25:31.341Z,8.87
2022-08-25T04:27:59.248Z,6.27
2022-08-25T04:30:27.289Z,9.83
2022-08-25T04:32:55.175Z,6.60
2022-08-25T04:35:24.356Z,8.83
2022-08-25T04:37:52.327Z,6.80
2022-08-25T04:40:20.477Z,8.17
2022-08-25T04:42:56.760Z,6.07
2022-08-25T04:45:24.758Z,6.33
2022-08-25T04:48:01.191Z,8.80
2022-08-25T04:50:30.501Z,9.30
2022-08-25T04:53:01.367Z,5.90
2022-08-25T04:55:29.422Z,6.63
2022-08-25T04:57:57.280Z,8.60
2022-08-25T05:00:25.229Z,8.40
2022-08-25T05:02:55.405Z,9.23
2022-08-25T05:05:23.691Z,8.00
2022-08-25T05:07:54.150Z,8.50
2022-08-25T05:10:22.028Z,7.37
2022-08-25T05:12:50.512Z,6.03
2022-08-25T05:15:36.135Z,7.07
2022-08-25T05:18:04.337Z,7.73
2022-08-25T05:20:32.336Z,6.03
2022-08-25T05:23:01.527Z,9.33
2022-08-25T05:25:29.489Z,5.27
2022-08-25T05:27:57.703Z,7.53
2022-08-25T05:30:25.655Z,6.77
2022-08-25T05:32:53.613Z,6.83
2022-08-25T05:35:21.563Z,6.07
2022-08-25T05:37:49.462Z,8.03
2022-08-25T05:40:18.810Z,6.33
2022-08-25T05:42:46.781Z,10.00
2022-08-25T05:45:16.710Z,6.63
2022-08-25T05:47:48.762Z,7.87
2022-08-25T05:50:17.451Z,5.40
2022-08-25T05:52:45.496Z,6.90
2022-08-25T05:55:15.389Z,7.03
2022-08-25T05:57:45.001Z,5.87
2022-08-25T06:00:13.908Z,6.67
2022-08-25T06:02:41.289Z,5.63
2022-08-25T06:05:10.138Z,5.87
2022-08-25T06:07:38.174Z,7.27
2022-08-25T06:10:25.973Z,8.10
2022-08-25T06:12:56.723Z,6.50
2022-08-25T06:15:26.999Z,5.77
2022-08-25T06:18:01.725Z,7.40
2022-08-25T06:20:32.472Z,4.93
2022-08-25T06:23:00.949Z,4.63
2022-08-25T06:25:32.604Z,7.37
2022-08-25T06:28:01.907Z,5.17
2022-08-25T06:30:29.945Z,10.17
2022-08-25T06:32:57.953Z,5.90
2022-08-25T06:35:26.143Z,5.73
2022-08-25T06:37:54.291Z,5.37
2022-08-25T06:40:22.947Z,6.33
2022-08-25T06:42:50.864Z,7.00
2022-08-25T06:45:20.996Z,8.17
2022-08-25T06:47:49.111Z,4.33
2022-08-25T06:50:17.044Z,4.27
2022-08-25T06:52:44.937Z,6.77
2022-08-25T06:55:12.875Z,7.80
2022-08-25T06:57:40.779Z,5.00
2022-08-25T07:00:10.828Z,4.83
2022-08-25T07:02:42.299Z,6.87
2022-08-25T07:05:17.146Z,6.27
2022-08-25T07:07:50.676Z,6.43
2022-08-25T07:10:19.488Z,7.87
2022-08-25T07:12:47.523Z,5.57
2022-08-25T07:15:20.477Z,5.43
2022-08-25T07:17:50.895Z,5.03
2022-08-25T07:20:19.654Z,6.57
2022-08-25T07:22:48.023Z,5.83
2022-08-25T07:25:15.956Z,7.07
2022-08-25T07:27:45.892Z,5.13
2022-08-25T07:30:13.915Z,7.47
2022-08-25T07:32:43.150Z,6.27
2022-08-25T07:35:19.616Z,8.30
2022-08-25T07:37:56.561Z,4.40
2022-08-25T07:40:27.476Z,6.53
2022-08-25T07:42:57.759Z,6.87
2022-08-25T07:45:30.660Z,4.97
2022-08-25T07:47:59.797Z,5.63
2022-08-25T07:50:31.200Z,6.97
2022-08-25T07:53:00.236Z,6.23
2022-08-25T07:55:30.367Z,6.47
2022-08-25T07:57:59.711Z,9.77
2022-08-25T08:00:30.063Z,6.53
2022-08-25T08:02:59.086Z,7.77
2022-08-25T08:05:27.635Z,5.50
2022-08-25T08:07:57.339Z,4.27
2022-08-25T08:10:42.476Z,7.40
2022-08-25T08:13:17.874Z,4.87
2022-08-25T08:15:47.721Z,5.77
2022-08-25T08:18:15.788Z,5.20
2022-08-25T08:20:45.288Z,5.57
2022-08-25T08:23:14.763Z,11.13
2022-08-25T08:25:42.819Z,8.17
2022-08-25T08:28:11.010Z,10.50
2022-08-25T08:30:39.448Z,6.70
2022-08-25T08:33:11.631Z,8.63
2022-08-25T08:35:40.953Z,9.57
2022-08-25T08:38:14.564Z,6.97
2022-08-25T08:41:16.327Z,7.27
2022-08-25T08:43:56.659Z,5.20
2022-08-25T08:46:25.916Z,7.47
2022-08-25T08:49:03.242Z,5.73
2022-08-25T08:51:34.111Z,7.90
2022-08-25T08:54:14.881Z,8.20
2022-08-25T08:56:48.463Z,9.33
2022-08-25T08:59:20.042Z,7.30
2022-08-25T09:01:54.458Z,7.47
2022-08-25T09:04:27.330Z,6.83
2022-08-25T09:06:57.374Z,7.63
2022-08-25T09:09:28.688Z,6.20
2022-08-25T09:12:10.343Z,5.30
2022-08-25T09:14:54.041Z,3.33
2022-08-25T09:17:31.685Z,7.83
2022-08-25T09:20:18.823Z,4.63
2022-08-25T09:22:56.323Z,5.43
2022-08-25T09:25:52.342Z,5.90
2022-08-25T09:28:29.386Z,5.27
2022-08-25T09:31:01.874Z,4.53
2022-08-25T09:33:33.600Z,4.87
2022-08-25T09:36:06.443Z,3.53
2022-08-25T09:38:37.431Z,4.67
2022-08-25T09:41:07.060Z,7.07
2022-08-25T09:43:38.091Z,6.30
2022-08-25T09:46:12.329Z,5.37
2022-08-25T09:48:56.881Z,6.53
2022-08-25T09:51:29.252Z,6.90
2022-08-25T09:54:19.677Z,5.50
2022-08-25T09:56:52.924Z,4.50
2022-08-25T09:59:34.419Z,5.73
2022-08-25T10:02:05.300Z,6.30
2022-08-25T10:04:36.832Z,3.43
2022-08-25T10:07:19.766Z,4.37
2022-08-25T10:09:55.163Z,4.97
2022-08-25T10:12:27.843Z,5.80
2022-08-25T10:14:57.594Z,4.50
2022-08-25T10:17:29.537Z,3.33
2022-08-25T10:20:18.184Z,4.97
2022-08-25T10:22:48.253Z,3.17
2022-08-25T10:25:25.544Z,3.70
2022-08-25T10:28:04.385Z,6.33
2022-08-25T10:30:40.400Z,4.13
2022-08-25T10:33:21.916Z,4.73
2022-08-25T10:35:59.751Z,7.80
2022-08-25T10:38:39.629Z,3.70
2022-08-25T10:41:32.088Z,4.37
2022-08-25T10:44:30.871Z,7.47
2022-08-25T10:47:13.108Z,2.83
2022-08-25T10:49:46.959Z,4.37
2022-08-25T10:52:24.746Z,3.70
2022-08-25T10:54:59.075Z,5.47
2022-08-25T10:57:40.797Z,5.40
2022-08-25T11:00:13.795Z,4.50
2022-08-25T11:03:12.500Z,5.10
2022-08-25T11:05:44.459Z,4.05
2022-08-25T11:08:18.000Z,5.03
2022-08-25T11:10:50.925Z,4.07
2022-08-25T11:13:27.576Z,2.63
2022-08-25T11:16:19.305Z,6.47
2022-08-25T11:18:53.743Z,3.40
2022-08-25T11:21:26.735Z,4.73
2022-08-25T11:24:05.592Z,5.57
2022-08-25T11:26:37.298Z,2.45
2022-08-25T11:29:12.214Z,4.25
2022-08-25T11:31:44.028Z,2.92
2022-08-25T11:34:19.521Z,5.97
2022-08-25T11:36:53.622Z,4.63
2022-08-25T11:39:36.490Z,2.83
2022-08-25T11:42:15.823Z,2.55
2022-08-25T11:44:53.816Z,5.85
2022-08-25T11:47:41.867Z,3.22
2022-08-25T11:50:30.219Z,3.65
2022-08-25T11:53:03.009Z,4.15
2022-08-25T11:55:48.425Z,5.63
2022-08-25T11:58:30.692Z,5.07
2022-08-25T12:01:01.418Z,5.82
2022-08-25T12:03:53.094Z,3.45
2022-08-25T12:06:31.293Z,3.15
2022-08-25T12:09:21.888Z,3.17
2022-08-25T12:11:58.467Z,2.70
2022-08-25T12:14:43.979Z,4.00
2022-08-25T12:17:26.042Z,4.03
2022-08-25T12:20:00.976Z,4.55
2022-08-25T12:22:55.432Z,3.35
2022-08-25T12:25:35.326Z,4.43
2022-08-25T12:28:11.082Z,5.60
2022-08-25T12:30:47.159Z,4.72
2022-08-25T12:33:30.011Z,3.13
2022-08-25T12:36:00.960Z,2.78
2022-08-25T12:38:33.425Z,2.50
2022-08-25T12:41:08.225Z,4.43
2022-08-25T12:43:39.918Z,4.03
2022-08-25T12:46:36.623Z,5.10
2022-08-25T12:49:11.939Z,3.20
2022-08-25T12:51:55.024Z,5.95
2022-08-25T12:54:40.237Z,6.25
2022-08-25T12:57:25.054Z,3.92
2022-08-25T13:00:00.247Z,4.68
2022-08-25T13:03:02.233Z,3.08
2022-08-25T13:05:49.652Z,4.05
2022-08-25T13:08:48.095Z,4.07
2022-08-25T13:11:21.243Z,3.45
2022-08-25T13:13:55.543Z,3.80
2022-08-25T13:16:29.339Z,5.07
2022-08-25T13:18:59.278Z,2.55
2022-08-25T13:21:31.757Z,3.35
2022-08-25T13:24:05.378Z,3.42
2022-08-25T13:26:47.181Z,3.28
2022-08-25T13:29:20.883Z,3.80
2022-08-25T13:31:55.231Z,4.15
2022-08-25T13:34:34.432Z,3.58
2022-08-25T13:37:25.811Z,5.82
2022-08-25T13:40:10.209Z,4.13
2022-08-25T13:42:42.281Z,2.63
2022-08-25T13:45:16.030Z,2.80
2022-08-25T13:47:45.705Z,3.58
2022-08-25T13:50:20.414Z,3.25
2022-08-25T13:52:50.855Z,2.78
2022-08-25T13:55:27.703Z,5.30
2022-08-25T13:57:59.434Z,5.28
2022-08-25T14:00:32.061Z,3.13
2022-08-25T14:03:02.085Z,4.10
2022-08-25T14:05:38.560Z,5.03
2022-08-25T14:08:16.266Z,2.83
2022-08-25T14:11:06.557Z,3.05
2022-08-25T14:13:44.883Z,3.75
2022-08-25T14:16:19.660Z,2.90
2022-08-25T14:18:50.130Z,5.57
2022-08-25T14:21:19.632Z,4.63
2022-08-25T14:23:47.610Z,3.22
2022-08-25T14:26:15.829Z,5.15
2022-08-25T14:28:45.723Z,5.65
2022-08-25T14:31:16.442Z,3.72
2022-08-25T14:33:50.607Z,3.65
2022-08-25T14:36:20.855Z,6.80
2022-08-25T14:38:54.659Z,4.85
2022-08-25T14:41:23.633Z,5.97
2022-08-25T14:43:53.322Z,4.32
2022-08-25T14:46:24.067Z,6.82
2022-08-25T14:48:55.434Z,3.20
2022-08-25T14:51:24.920Z,3.50
2022-08-25T14:53:54.817Z,3.88
2022-08-25T14:56:22.896Z,4.40
2022-08-25T14:58:52.152Z,3.72
2022-08-25T15:01:29.018Z,3.70
2022-08-25T15:04:02.218Z,4.55
2022-08-25T15:06:30.964Z,5.43
2022-08-25T15:09:11.537Z,7.15
2022-08-25T15:11:42.677Z,3.05
2022-08-25T15:14:15.476Z,4.25
2022-08-25T15:16:46.188Z,4.30
2022-08-25T15:19:17.380Z,3.60
2022-08-25T15:21:47.048Z,4.82
2022-08-25T15:24:17.350Z,4.80
2022-08-25T15:29:27.214Z,4.53
2022-08-25T15:31:55.223Z,4.97
2022-08-25T15:34:23.407Z,4.18
2022-08-25T15:36:52.391Z,3.97
2022-08-25T15:39:20.883Z,5.15
2022-08-25T15:41:52.087Z,4.15
2022-08-25T15:44:20.647Z,4.30
2022-08-25T15:46:50.450Z,10.13
2022-08-25T15:49:20.488Z,3.83
2022-08-25T15:51:52.310Z,4.82
2022-08-25T15:54:21.437Z,4.13
2022-08-25T15:56:49.369Z,3.13
2022-08-25T15:59:17.415Z,4.15
2022-08-25T16:01:46.421Z,7.18
2022-08-25T16:04:15.743Z,5.00
2022-08-25T16:06:46.059Z,3.05
2022-08-25T16:09:15.633Z,6.47
2022-08-25T16:11:43.571Z,4.82
2022-08-25T16:14:11.991Z,9.45
2022-08-25T16:16:42.673Z,6.32
2022-08-25T16:19:11.159Z,3.60
2022-08-25T16:21:45.417Z,4.65
2022-08-25T16:24:15.413Z,3.85
2022-08-25T16:26:48.596Z,4.28
2022-08-25T16:29:17.024Z,3.88
2022-08-25T16:31:45.297Z,4.53
2022-08-25T16:34:22.174Z,4.07
2022-08-25T16:36:53.884Z,4.78
2022-08-25T16:39:23.841Z,4.10
2022-08-25T16:41:53.151Z,4.50
2022-08-25T16:44:22.636Z,3.25
2022-08-25T16:46:54.173Z,3.20
2022-08-25T16:49:24.475Z,3.50
2022-08-25T16:51:57.534Z,3.85
2022-08-25T16:54:44.377Z,4.32
2022-08-25T16:57:12.870Z,3.25
2022-08-25T16:59:42.427Z,4.18
2022-08-25T17:02:11.852Z,3.90
2022-08-25T17:04:40.615Z,5.00
2022-08-25T17:07:10.179Z,4.10
2022-08-25T17:09:38.144Z,5.03
2022-08-25T17:12:06.562Z,3.00
2022-08-25T17:14:34.532Z,7.60
2022-08-25T17:17:03.490Z,5.10
2022-08-25T17:19:34.920Z,4.37
2022-08-25T17:22:02.845Z,4.75
2022-08-25T17:24:33.426Z,3.17
2022-08-25T17:27:02.150Z,5.80
2022-08-25T17:29:30.389Z,3.90
2022-08-25T17:31:59.365Z,5.50
2022-08-25T17:34:28.535Z,5.77
2022-08-25T17:36:57.454Z,5.07
2022-08-25T17:39:25.907Z,4.43
2022-08-25T17:41:55.706Z,5.57
2022-08-25T17:44:23.690Z,5.43
2022-08-25T17:46:52.565Z,4.33
2022-08-25T17:49:20.576Z,3.77
2022-08-25T17:51:48.450Z,4.93
2022-08-25T17:54:17.497Z,4.00
2022-08-25T17:56:45.458Z,3.57
2022-08-25T17:59:16.355Z,3.83
2022-08-25T18:01:45.592Z,5.33
2022-08-25T18:04:17.037Z,4.63
2022-08-25T18:06:46.483Z,3.97
2022-08-25T18:09:14.544Z,3.43
2022-08-25T18:11:42.917Z,5.73
2022-08-25T18:14:11.179Z,5.13
2022-08-25T18:16:40.733Z,5.20
2022-08-25T18:19:10.700Z,4.70
2022-08-25T18:21:38.737Z,19.10
2022-08-25T18:24:08.015Z,12.97
2022-08-25T18:26:36.556Z,16.37
2022-08-25T18:29:05.494Z,8.70
2022-08-25T18:31:33.437Z,7.20
2022-08-25T18:34:04.915Z,4.80
2022-08-25T18:36:33.666Z,4.10
2022-08-25T18:39:25.805Z,5.77
2022-08-25T18:41:53.717Z,8.10
2022-08-25T18:44:21.739Z,5.10
2022-08-25T18:46:49.737Z,5.43
2022-08-25T18:49:19.047Z,8.43
2022-08-25T18:51:49.431Z,7.70
2022-08-25T18:54:23.729Z,7.47
2022-08-25T18:56:52.898Z,8.60
2022-08-25T18:59:23.390Z,7.20
2022-08-25T19:01:52.732Z,6.10
2022-08-25T19:04:28.369Z,9.57
2022-08-25T19:07:00.315Z,8.63
2022-08-25T19:09:28.493Z,8.20
2022-08-25T19:11:56.983Z,8.70
2022-08-25T19:14:24.953Z,8.73
2022-08-25T19:16:54.844Z,8.03
2022-08-25T19:19:25.721Z,8.60
2022-08-25T19:21:53.635Z,14.97
2022-08-25T19:24:21.644Z,11.07
2022-08-25T19:26:54.306Z,8.60
2022-08-25T19:29:23.599Z,10.73
2022-08-25T19:31:51.984Z,10.83
2022-08-25T19:34:25.263Z,8.77
2022-08-25T19:36:59.910Z,8.63
2022-08-25T19:39:28.477Z,14.03
2022-08-25T19:41:58.723Z,10.33
2022-08-25T19:44:28.031Z,10.20
2022-08-25T19:46:56.165Z,11.53
2022-08-25T19:49:31.697Z,12.17
2022-08-25T19:52:04.551Z,13.40
2022-08-25T19:54:34.467Z,17.00
2022-08-25T19:57:03.487Z,14.40
2022-08-25T19:59:42.827Z,15.27
2022-08-25T20:02:16.405Z,15.93
2022-08-25T20:04:49.294Z,18.30
2022-08-25T20:07:22.733Z,18.67
2022-08-25T20:09:52.670Z,20.90
2022-08-25T20:12:21.814Z,21.13
2022-08-25T20:14:50.898Z,22.30
2022-08-25T20:17:24.237Z,24.80
2022-08-25T20:19:56.914Z,25.97
2022-08-25T20:22:27.314Z,27.13
2022-08-25T20:24:58.260Z,32.70
2022-08-25T20:27:31.826Z,34.20
2022-08-25T20:30:02.795Z,38.60
2022-08-25T20:32:32.341Z,38.97
2022-08-25T20:35:00.848Z,40.50
2022-08-25T20:37:30.130Z,40.00
2022-08-25T20:39:58.233Z,38.73
2022-08-25T20:42:26.409Z,37.03
2022-08-25T20:44:54.654Z,39.53
2022-08-25T20:47:22.586Z,36.73
2022-08-25T20:49:50.594Z,36.97
2022-08-25T20:52:19.528Z,36.43
2022-08-25T20:54:51.255Z,36.90
2022-08-25T20:57:24.381Z,38.00
2022-08-25T20:59:54.284Z,35.20
2022-08-25T21:02:22.394Z,34.93
2022-08-25T21:04:50.629Z,32.57
2022-08-25T21:07:19.722Z,35.23
2022-08-25T21:09:50.359Z,34.13
2022-08-25T21:12:19.871Z,35.33
2022-08-25T21:14:48.114Z,32.97
2022-08-25T21:17:19.231Z,29.83
2022-08-25T21:22:17.131Z,29.00
2022-08-25T21:24:45.243Z,26.93
2022-08-25T21:27:14.715Z,27.00
2022-08-25T21:29:44.763Z,27.60
2022-08-25T21:32:23.255Z,28.50
2022-08-25T21:34:53.303Z,26.30
2022-08-25T21:37:21.610Z,26.63
2022-08-25T21:39:49.596Z,21.97
2022-08-25T21:42:19.319Z,21.23
2022-08-25T21:44:47.466Z,22.97
2022-08-25T21:47:15.785Z,22.73
2022-08-25T21:49:49.779Z,19.20
2022-08-25T21:52:18.001Z,22.10
2022-08-25T21:54:45.960Z,24.33
2022-08-25T21:57:13.851Z,23.17
2022-08-25T21:59:43.506Z,23.93
2022-08-25T22:02:13.995Z,23.83
2022-08-25T22:04:42.880Z,24.13
2022-08-25T22:07:11.259Z,21.80
2022-08-25T22:09:41.058Z,20.70
2022-08-25T22:12:09.934Z,20.97
2022-08-25T22:14:38.506Z,21.40
2022-08-25T22:17:12.357Z,18.57
2022-08-25T22:19:45.405Z,24.23
2022-08-25T22:22:15.579Z,23.70
2022-08-25T22:24:43.657Z,20.43
2022-08-25T22:27:15.553Z,24.87
2022-08-25T22:29:44.919Z,23.97
2022-08-25T22:32:14.741Z,21.60
2022-08-25T22:34:43.712Z,24.03
2022-08-25T22:37:12.247Z,19.47
2022-08-25T22:39:41.907Z,23.23
2022-08-25T22:42:10.039Z,21.83
2022-08-25T22:44:39.290Z,23.97
2022-08-25T22:47:09.389Z,20.80
2022-08-25T22:49:41.299Z,19.43
2022-08-25T22:52:12.779Z,23.63
2022-08-25T22:54:42.030Z,21.13
2022-08-25T22:57:10.155Z,22.40
2022-08-25T22:59:39.107Z,22.03
2022-08-25T23:02:07.237Z,21.77
2022-08-25T23:04:36.858Z,18.60
2022-08-25T23:07:11.248Z,18.53
2022-08-25T23:09:39.589Z,17.00
2022-08-25T23:12:08.062Z,20.50
2022-08-25T23:14:37.132Z,20.43
2022-08-25T23:17:07.497Z,24.83
2022-08-25T23:19:35.967Z,18.20
2022-08-25T23:22:09.358Z,16.00
2022-08-25T23:24:42.825Z,18.53
2022-08-25T23:27:12.567Z,21.47
2022-08-25T23:29:43.079Z,19.27
2022-08-25T23:32:14.040Z,16.13
2022-08-25T23:34:43.822Z,13.83
2022-08-25T23:37:16.117Z,14.73
2022-08-25T23:39:49.387Z,11.73
2022-08-25T23:42:17.665Z,12.63
2022-08-25T23:44:46.230Z,13.70
2022-08-25T23:47:14.098Z,14.00
2022-08-25T23:49:42.411Z,12.13
2022-08-25T23:52:10.367Z,12.27
2022-08-25T23:54:39.233Z,12.60
2022-08-25T23:57:09.023Z,9.43
2022-08-25T23:59:37.444Z,10.20
